createdAt,value
2023-02-12T00:01:11.398Z,81.20
2023-02-12T00:03:38.768Z,81.90
2023-02-12T00:06:06.478Z,81.60
2023-02-12T00:08:33.242Z,81.60
2023-02-12T00:10:59.907Z,81.90
2023-02-12T00:13:26.543Z,81.80
2023-02-12T00:15:53.361Z,82.30
2023-02-12T00:18:20.240Z,82.20
2023-02-12T00:20:46.882Z,81.90
2023-02-12T00:23:13.777Z,82.10
2023-02-12T00:25:43.255Z,82.00
2023-02-12T00:28:10.226Z,82.10
2023-02-12T00:30:37.033Z,81.10
2023-02-12T00:33:03.900Z,83.00
2023-02-12T00:35:30.601Z,82.20
2023-02-12T00:37:57.486Z,80.40
2023-02-12T00:40:24.496Z,82.20
2023-02-12T00:42:51.217Z,79.70
2023-02-12T00:45:17.933Z,80.10
2023-02-12T00:47:44.682Z,80.80
2023-02-12T00:50:11.646Z,78.20
2023-02-12T00:52:38.314Z,81.60
2023-02-12T00:55:05.529Z,81.40
2023-02-12T00:57:33.452Z,80.90
2023-02-12T01:00:00.132Z,80.40
2023-02-12T01:02:29.974Z,80.00
2023-02-12T01:04:56.682Z,81.50
2023-02-12T01:07:23.518Z,82.30
2023-02-12T01:09:50.179Z,81.60
2023-02-12T01:12:16.920Z,80.70
2023-02-12T01:14:43.610Z,79.50
2023-02-12T01:17:10.418Z,80.90
2023-02-12T01:19:37.109Z,81.10
2023-02-12T01:22:04.161Z,79.10
2023-02-12T01:24:30.876Z,79.80
2023-02-12T01:26:57.913Z,80.50
2023-02-12T01:29:24.572Z,81.10
2023-02-12T01:31:51.352Z,81.10
2023-02-12T01:34:18.160Z,80.90
2023-02-12T01:36:44.829Z,81.20
2023-02-12T01:39:12.413Z,81.00
2023-02-12T01:41:44.385Z,81.80
2023-02-12T01:44:21.765Z,82.10
2023-02-12T01:46:50.729Z,81.40
2023-02-12T01:49:33.970Z,79.90
2023-02-12T01:52:21.421Z,82.40
2023-02-12T01:54:49.161Z,81.70
2023-02-12T01:57:16.413Z,81.40
2023-02-12T01:59:44.035Z,82.10
2023-02-12T02:02:10.871Z,81.70
2023-02-12T02:04:42.046Z,81.90
2023-02-12T02:07:10.942Z,81.90
2023-02-12T02:09:38.641Z,82.90
2023-02-12T02:12:24.969Z,81.80
2023-02-12T02:14:54.372Z,82.50
2023-02-12T02:17:43.575Z,81.30
2023-02-12T02:20:40.777Z,82.90
2023-02-12T02:23:17.038Z,81.10
2023-02-12T02:26:08.675Z,82.60
2023-02-12T02:29:13.229Z,82.20
2023-02-12T02:31:43.727Z,82.10
2023-02-12T02:34:19.998Z,81.70
2023-02-12T02:37:00.081Z,82.10
2023-02-12T02:39:56.205Z,83.10
2023-02-12T02:42:42.242Z,82.30
2023-02-12T02:45:16.669Z,81.70
2023-02-12T02:47:53.928Z,82.40
2023-02-12T02:50:24.317Z,83.30
2023-02-12T02:52:52.603Z,83.00
2023-02-12T02:55:21.209Z,83.30
2023-02-12T02:57:57.554Z,83.60
2023-02-12T03:00:32.445Z,84.50
2023-02-12T03:03:07.023Z,83.30
2023-02-12T03:05:40.614Z,83.50
2023-02-12T03:08:27.219Z,83.30
2023-02-12T03:10:58.370Z,84.40
2023-02-12T03:13:30.534Z,84.60
2023-02-12T03:16:09.942Z,85.70
2023-02-12T03:18:41.735Z,84.80
2023-02-12T03:21:15.023Z,85.20
2023-02-12T03:24:02.871Z,84.60
2023-02-12T03:27:05.714Z,83.80
2023-02-12T03:32:28.654Z,83.40
2023-02-12T03:35:19.040Z,84.30
2023-02-12T03:37:57.283Z,83.90
2023-02-12T03:40:45.306Z,84.10
2023-02-12T03:43:24.484Z,83.80
2023-02-12T03:46:18.983Z,84.40
2023-02-12T03:49:02.434Z,85.20
2023-02-12T03:51:39.290Z,84.30
2023-02-12T03:54:08.198Z,83.40
2023-02-12T03:56:37.667Z,84.00
2023-02-12T03:59:05.410Z,83.20
2023-02-12T04:01:33.580Z,83.50
2023-02-12T04:04:04.447Z,84.90
2023-02-12T04:06:31.214Z,85.70
2023-02-12T04:09:01.320Z,86.30
2023-02-12T04:11:53.767Z,85.30
2023-02-12T04:15:04.017Z,86.40
2023-02-12T04:17:46.701Z,86.40
2023-02-12T04:20:21.312Z,87.50
2023-02-12T04:22:58.389Z,85.60
2023-02-12T04:25:38.722Z,86.20
2023-02-12T04:28:28.754Z,86.00
2023-02-12T04:31:36.571Z,86.60
2023-02-12T04:34:21.246Z,86.40
2023-02-12T04:36:57.221Z,88.70
2023-02-12T04:39:27.650Z,87.10
2023-02-12T04:41:54.439Z,87.00
2023-02-12T04:44:24.884Z,86.20
2023-02-12T04:46:52.029Z,87.10
2023-02-12T04:49:20.502Z,88.80
2023-02-12T04:51:47.897Z,87.70
2023-02-12T04:54:15.942Z,89.00
2023-02-12T04:56:42.849Z,87.50
2023-02-12T04:59:10.149Z,89.60
2023-02-12T05:01:38.363Z,86.70
2023-02-12T05:04:06.450Z,88.80
2023-02-12T05:06:36.196Z,88.20
2023-02-12T05:09:03.973Z,89.60
2023-02-12T05:11:30.704Z,89.10
2023-02-12T05:13:57.562Z,89.50
2023-02-12T05:16:24.268Z,88.70
2023-02-12T05:18:50.955Z,88.70
2023-02-12T05:21:17.786Z,88.10
2023-02-12T05:23:44.621Z,87.50
2023-02-12T05:26:14.219Z,88.90
2023-02-12T05:28:41.319Z,85.40
2023-02-12T05:31:10.014Z,88.70
2023-02-12T05:33:36.778Z,90.70
2023-02-12T05:36:05.922Z,89.30
2023-02-12T05:38:32.927Z,91.40
2023-02-12T05:41:08.223Z,90.50
2023-02-12T05:43:34.956Z,89.50
2023-02-12T05:46:03.063Z,88.60
2023-02-12T05:48:30.461Z,89.60
2023-02-12T05:51:09.388Z,88.60
2023-02-12T05:53:37.529Z,86.80
2023-02-12T05:56:09.336Z,87.40
2023-02-12T05:58:36.086Z,88.00
2023-02-12T06:01:03.206Z,90.00
2023-02-12T06:03:30.025Z,89.60
2023-02-12T06:05:56.957Z,89.10
2023-02-12T06:08:23.854Z,88.90
2023-02-12T06:10:50.518Z,86.20
2023-02-12T06:13:17.202Z,87.80
2023-02-12T06:15:43.868Z,89.00
2023-02-12T06:18:10.534Z,88.10
2023-02-12T06:20:39.925Z,88.30
2023-02-12T06:23:06.625Z,87.70
2023-02-12T06:25:33.271Z,89.00
2023-02-12T06:28:00.345Z,86.50
2023-02-12T06:30:27.001Z,88.30
2023-02-12T06:32:53.653Z,85.80
2023-02-12T06:35:20.302Z,87.80
2023-02-12T06:37:47.012Z,87.40
2023-02-12T06:40:13.865Z,88.40
2023-02-12T06:42:40.571Z,88.50
2023-02-12T06:45:07.527Z,90.00
2023-02-12T06:47:34.204Z,89.10
2023-02-12T06:50:00.835Z,88.90
2023-02-12T06:52:28.216Z,89.50
2023-02-12T06:54:54.927Z,90.00
2023-02-12T06:59:49.679Z,90.00
2023-02-12T07:02:16.373Z,91.40
2023-02-12T07:04:43.331Z,91.30
2023-02-12T07:07:11.874Z,93.00
2023-02-12T07:09:38.570Z,93.00
2023-02-12T07:12:05.382Z,94.60
2023-02-12T07:14:32.162Z,95.10
2023-02-12T07:16:58.899Z,94.70
2023-02-12T07:19:25.794Z,95.30
2023-02-12T07:21:52.486Z,95.40
2023-02-12T07:24:19.212Z,95.70
2023-02-12T07:26:45.978Z,96.10
2023-02-12T07:29:13.349Z,96.30
2023-02-12T07:31:40.656Z,96.20
2023-02-12T07:34:07.476Z,96.80
2023-02-12T07:36:34.327Z,96.30
2023-02-12T07:39:01.793Z,96.30
2023-02-12T07:41:33.908Z,96.50
2023-02-12T07:44:07.595Z,96.30
2023-02-12T07:46:46.946Z,96.10
2023-02-12T07:49:26.809Z,95.20
2023-02-12T07:51:55.549Z,95.50
2023-02-12T07:54:22.243Z,94.40
2023-02-12T07:56:49.020Z,94.30
2023-02-12T07:59:18.721Z,94.30
2023-02-12T08:01:52.596Z,95.00
2023-02-12T08:04:21.898Z,95.30
2023-02-12T08:06:51.427Z,94.90
2023-02-12T08:09:21.028Z,94.90
2023-02-12T08:11:48.322Z,95.40
2023-02-12T08:14:17.882Z,94.90
2023-02-12T08:16:45.660Z,95.50
2023-02-12T08:19:19.719Z,95.70
2023-02-12T08:21:55.257Z,95.00
2023-02-12T08:24:22.467Z,95.80
2023-02-12T08:26:51.813Z,96.40
2023-02-12T08:29:21.113Z,96.90
2023-02-12T08:31:49.706Z,96.70
2023-02-12T08:34:19.032Z,97.70
2023-02-12T08:36:46.097Z,97.50
2023-02-12T08:39:13.859Z,97.80
2023-02-12T08:41:42.359Z,97.20
2023-02-12T08:44:09.733Z,97.60
2023-02-12T08:46:38.553Z,97.90
2023-02-12T08:49:10.089Z,98.90
2023-02-12T08:51:39.878Z,98.40
2023-02-12T08:54:09.522Z,98.80
2023-02-12T08:56:36.779Z,98.40
2023-02-12T08:59:04.925Z,98.90
2023-02-12T09:01:34.848Z,99.20
2023-02-12T09:04:01.817Z,99.20
2023-02-12T09:06:28.793Z,99.60
2023-02-12T09:08:55.829Z,99.80
2023-02-12T09:11:30.648Z,99.70
2023-02-12T09:13:59.914Z,99.90
2023-02-12T09:16:27.570Z,99.70
2023-02-12T09:18:55.058Z,99.90
2023-02-12T09:21:22.045Z,99.80
2023-02-12T09:23:48.989Z,99.90
2023-02-12T09:26:18.317Z,99.80
2023-02-12T09:28:45.053Z,99.90
2023-02-12T09:31:26.626Z,99.90
2023-02-12T09:33:55.562Z,99.90
2023-02-12T09:36:22.327Z,99.90
2023-02-12T09:38:49.643Z,99.90
2023-02-12T09:41:38.166Z,99.90
2023-02-12T09:44:18.161Z,99.90
2023-02-12T09:46:52.241Z,99.90
2023-02-12T09:49:28.323Z,99.90
2023-02-12T09:51:55.521Z,99.90
2023-02-12T09:54:24.777Z,99.90
2023-02-12T09:56:57.194Z,99.90
2023-02-12T09:59:44.367Z,99.90
2023-02-12T10:02:14.841Z,99.90
2023-02-12T10:04:55.238Z,99.90
2023-02-12T10:07:45.915Z,99.90
2023-02-12T10:10:22.393Z,99.90
2023-02-12T10:12:52.040Z,99.90
2023-02-12T10:15:46.915Z,99.90
2023-02-12T10:18:26.603Z,99.90
2023-02-12T10:21:14.441Z,99.90
2023-02-12T10:24:19.454Z,99.90
2023-02-12T10:26:51.646Z,99.90
2023-02-12T10:29:21.473Z,99.90
2023-02-12T10:34:26.777Z,99.90
2023-02-12T10:36:59.464Z,99.90
2023-02-12T10:39:29.482Z,99.90
2023-02-12T10:42:10.143Z,99.90
2023-02-12T10:44:37.051Z,99.90
2023-02-12T10:47:03.725Z,99.90
2023-02-12T10:49:32.051Z,99.90
2023-02-12T10:52:30.362Z,99.90
2023-02-12T10:54:57.012Z,99.90
2023-02-12T10:57:26.624Z,99.90
2023-02-12T10:59:57.211Z,99.90
2023-02-12T11:02:30.415Z,99.90
2023-02-12T11:04:59.126Z,99.90
2023-02-12T11:07:27.462Z,99.90
2023-02-12T11:09:56.393Z,99.90
2023-02-12T11:12:55.736Z,99.90
2023-02-12T11:15:24.314Z,99.90
2023-02-12T11:18:05.833Z,99.90
2023-02-12T11:20:50.135Z,99.90
2023-02-12T11:23:31.840Z,99.70
2023-02-12T11:26:27.348Z,99.20
2023-02-12T11:28:58.600Z,99.10
2023-02-12T11:31:32.865Z,98.70
2023-02-12T11:34:19.855Z,98.50
2023-02-12T11:36:52.218Z,98.10
2023-02-12T11:39:28.205Z,98.30
2023-02-12T11:41:57.296Z,98.50
2023-02-12T11:44:30.489Z,97.80
2023-02-12T11:47:20.298Z,97.90
2023-02-12T11:49:52.780Z,97.60
2023-02-12T11:52:31.597Z,97.80
2023-02-12T11:55:05.574Z,97.70
2023-02-12T11:57:38.704Z,98.20
2023-02-12T12:00:18.083Z,97.20
2023-02-12T12:03:14.206Z,96.80
2023-02-12T12:05:50.440Z,97.10
2023-02-12T12:08:33.737Z,97.30
2023-02-12T12:11:15.818Z,96.80
2023-02-12T12:14:09.213Z,97.20
2023-02-12T12:17:06.179Z,96.70
2023-02-12T12:19:55.079Z,96.10
2023-02-12T12:22:35.825Z,95.80
2023-02-12T12:25:33.443Z,96.50
2023-02-12T12:28:32.972Z,96.00
2023-02-12T12:31:15.637Z,96.60
2023-02-12T12:34:00.716Z,96.20
2023-02-12T12:36:52.649Z,96.50
2023-02-12T12:39:53.182Z,96.20
2023-02-12T12:42:57.714Z,96.20
2023-02-12T12:45:50.275Z,96.50
2023-02-12T12:48:25.970Z,96.50
2023-02-12T12:51:18.730Z,96.30
2023-02-12T12:54:07.681Z,96.50
2023-02-12T12:56:53.627Z,96.50
2023-02-12T12:59:48.765Z,96.10
2023-02-12T13:02:36.543Z,97.50
2023-02-12T13:05:45.336Z,99.20
2023-02-12T13:08:28.283Z,99.70
2023-02-12T13:11:16.993Z,99.90
2023-02-12T13:13:50.103Z,99.90
2023-02-12T13:16:23.868Z,99.90
2023-02-12T13:19:12.947Z,99.90
2023-02-12T13:21:56.565Z,99.90
2023-02-12T13:24:29.353Z,99.90
2023-02-12T13:27:01.147Z,99.90
2023-02-12T13:29:48.709Z,99.90
2023-02-12T13:32:32.510Z,99.90
2023-02-12T13:35:00.269Z,99.90
2023-02-12T13:37:40.126Z,99.90
2023-02-12T13:40:09.081Z,99.90
2023-02-12T13:42:50.988Z,99.90
2023-02-12T13:45:31.481Z,99.90
2023-02-12T13:48:24.677Z,99.90
2023-02-12T13:51:21.565Z,99.90
2023-02-12T13:54:06.689Z,99.90
2023-02-12T13:56:42.400Z,99.90
2023-02-12T13:59:40.105Z,99.90
2023-02-12T14:02:13.342Z,99.90
2023-02-12T14:04:47.388Z,99.90
2023-02-12T14:07:15.625Z,99.90
2023-02-12T14:10:00.137Z,95.60
2023-02-12T14:12:26.778Z,90.10
2023-02-12T14:14:56.568Z,84.50
2023-02-12T14:17:29.710Z,74.90
2023-02-12T14:20:15.940Z,71.70
2023-02-12T14:22:42.590Z,77.10
2023-02-12T14:25:15.191Z,73.40
2023-02-12T14:27:54.405Z,72.90
2023-02-12T14:30:40.279Z,65.90
2023-02-12T14:33:07.267Z,62.90
2023-02-12T14:35:37.019Z,60.00
2023-02-12T14:38:10.224Z,54.50
2023-02-12T14:40:40.439Z,55.50
2023-02-12T14:43:26.865Z,51.30
2023-02-12T14:45:55.591Z,54.30
2023-02-12T14:48:41.366Z,54.30
2023-02-12T14:51:17.156Z,55.30
2023-02-12T14:53:44.652Z,51.00
2023-02-12T14:56:12.321Z,49.80
2023-02-12T14:58:39.341Z,50.30
2023-02-12T15:01:06.271Z,47.60
2023-02-12T15:03:41.155Z,49.30
2023-02-12T15:06:13.924Z,50.30
2023-02-12T15:08:51.513Z,46.40
2023-02-12T15:11:33.467Z,50.20
2023-02-12T15:14:08.018Z,57.70
2023-02-12T15:16:46.156Z,58.70
2023-02-12T15:19:31.962Z,51.60
2023-02-12T15:21:59.100Z,64.30
2023-02-12T15:24:27.251Z,58.90
2023-02-12T15:26:56.912Z,58.40
2023-02-12T15:29:30.756Z,60.00
2023-02-12T15:31:59.946Z,65.00
2023-02-12T15:34:30.233Z,52.10
2023-02-12T15:37:02.267Z,56.80
2023-02-12T15:39:43.425Z,59.00
2023-02-12T15:42:59.755Z,69.90
2023-02-12T15:45:28.430Z,64.80
2023-02-12T15:48:01.988Z,68.90
2023-02-12T15:50:29.434Z,63.30
2023-02-12T15:52:56.947Z,64.60
2023-02-12T15:55:27.376Z,58.90
2023-02-12T15:57:57.088Z,60.10
2023-02-12T16:00:30.608Z,64.10
2023-02-12T16:02:57.505Z,63.80
2023-02-12T16:05:24.950Z,65.50
2023-02-12T16:07:51.969Z,65.30
2023-02-12T16:10:20.186Z,64.50
2023-02-12T16:12:47.791Z,61.30
2023-02-12T16:15:26.362Z,62.80
2023-02-12T16:17:53.143Z,63.70
2023-02-12T16:20:25.711Z,62.00
2023-02-12T16:22:52.874Z,65.80
2023-02-12T16:25:21.215Z,62.60
2023-02-12T16:28:18.398Z,62.00
2023-02-12T16:30:48.333Z,64.70
2023-02-12T16:33:56.264Z,64.90
2023-02-12T16:36:22.988Z,65.60
2023-02-12T16:38:51.087Z,64.90
2023-02-12T16:41:20.550Z,65.50
2023-02-12T16:44:12.540Z,68.30
2023-02-12T16:46:50.849Z,72.20
2023-02-12T16:49:22.910Z,65.20
2023-02-12T16:51:50.366Z,67.80
2023-02-12T16:54:36.399Z,66.80
2023-02-12T16:57:03.273Z,67.20
2023-02-12T16:59:30.202Z,64.50
2023-02-12T17:02:05.268Z,70.10
2023-02-12T17:06:59.631Z,66.70
2023-02-12T17:09:26.477Z,68.60
2023-02-12T17:11:53.330Z,68.50
2023-02-12T17:14:20.989Z,66.70
2023-02-12T17:19:22.873Z,65.90
2023-02-12T17:21:51.140Z,69.50
2023-02-12T17:24:29.068Z,68.40
2023-02-12T17:26:55.964Z,69.60
2023-02-12T17:29:24.065Z,70.50
2023-02-12T17:31:53.709Z,71.00
2023-02-12T17:34:20.746Z,71.60
2023-02-12T17:36:47.507Z,72.50
2023-02-12T17:39:15.351Z,72.70
2023-02-12T17:41:44.068Z,71.00
2023-02-12T17:44:13.246Z,70.30
2023-02-12T17:46:40.066Z,67.70
2023-02-12T17:49:06.728Z,72.90
2023-02-12T17:51:33.415Z,72.80
2023-02-12T17:54:00.104Z,69.60
2023-02-12T17:56:26.874Z,70.40
2023-02-12T17:58:53.569Z,70.70
2023-02-12T18:01:23.311Z,69.70
2023-02-12T18:03:52.671Z,71.10
2023-02-12T18:06:28.472Z,71.30
2023-02-12T18:08:56.816Z,70.10
2023-02-12T18:11:23.590Z,69.80
2023-02-12T18:13:55.754Z,69.80
2023-02-12T18:16:23.725Z,69.40
2023-02-12T18:18:50.426Z,71.60
2023-02-12T18:21:17.525Z,70.00
2023-02-12T18:23:44.283Z,68.60
2023-02-12T18:26:13.608Z,70.10
2023-02-12T18:28:40.859Z,70.50
2023-02-12T18:31:08.287Z,70.10
2023-02-12T18:33:35.523Z,69.90
2023-02-12T18:36:14.394Z,69.60
2023-02-12T18:38:41.997Z,69.30
2023-02-12T18:41:17.362Z,69.20
2023-02-12T18:43:44.612Z,70.00
2023-02-12T18:46:17.542Z,69.00
2023-02-12T18:48:44.287Z,66.70
2023-02-12T18:51:14.461Z,67.50
2023-02-12T18:53:41.224Z,68.30
2023-02-12T18:56:09.635Z,69.00
2023-02-12T18:58:37.035Z,68.30
2023-02-12T19:01:18.080Z,68.50
2023-02-12T19:03:45.580Z,67.60
2023-02-12T19:06:12.857Z,68.00
2023-02-12T19:08:39.882Z,66.30
2023-02-12T19:11:07.911Z,65.10
2023-02-12T19:13:34.585Z,65.90
2023-02-12T19:16:09.892Z,66.30
2023-02-12T19:18:36.586Z,66.00
2023-02-12T19:21:08.264Z,63.30
2023-02-12T19:23:35.101Z,64.60
2023-02-12T19:26:06.754Z,64.80
2023-02-12T19:28:34.452Z,64.80
2023-02-12T19:31:17.695Z,65.30
2023-02-12T19:33:44.968Z,64.10
2023-02-12T19:36:13.757Z,63.30
2023-02-12T19:38:40.449Z,62.70
2023-02-12T19:41:09.783Z,62.90
2023-02-12T19:43:37.014Z,63.50
2023-02-12T19:46:06.017Z,62.90
2023-02-12T19:48:33.118Z,62.90
2023-02-12T19:50:59.829Z,64.10
2023-02-12T19:53:26.760Z,62.90
2023-02-12T19:55:53.832Z,62.40
2023-02-12T19:58:20.802Z,62.30
2023-02-12T20:00:48.381Z,62.90
2023-02-12T20:03:15.231Z,61.20
2023-02-12T20:05:46.393Z,61.50
2023-02-12T20:08:13.781Z,61.60
2023-02-12T20:10:40.963Z,62.40
2023-02-12T20:13:08.123Z,62.10
2023-02-12T20:15:38.123Z,61.10
2023-02-12T20:18:05.579Z,61.00
2023-02-12T20:20:33.698Z,62.50
2023-02-12T20:23:00.753Z,62.70
2023-02-12T20:25:27.552Z,64.30
2023-02-12T20:27:54.301Z,64.20
2023-02-12T20:30:21.139Z,63.10
2023-02-12T20:32:47.831Z,63.10
2023-02-12T20:35:15.500Z,62.60
2023-02-12T20:37:45.159Z,63.80
2023-02-12T20:40:12.275Z,63.40
2023-02-12T20:42:38.975Z,63.10
2023-02-12T20:45:06.138Z,64.30
2023-02-12T20:47:33.992Z,63.70
2023-02-12T20:50:00.809Z,63.10
2023-02-12T20:52:27.783Z,65.20
2023-02-12T20:54:54.451Z,64.90
2023-02-12T20:57:21.276Z,64.80
2023-02-12T20:59:49.749Z,63.10
2023-02-12T21:02:16.593Z,64.90
2023-02-12T21:04:43.309Z,63.60
2023-02-12T21:07:09.971Z,64.00
2023-02-12T21:09:41.070Z,64.50
2023-02-12T21:12:07.810Z,62.90
2023-02-12T21:14:36.415Z,64.00
2023-02-12T21:17:03.321Z,65.70
2023-02-12T21:19:29.992Z,62.40
2023-02-12T21:21:56.694Z,63.50
2023-02-12T21:24:25.396Z,62.20
2023-02-12T21:26:53.746Z,64.10
2023-02-12T21:29:20.849Z,64.00
2023-02-12T21:31:49.218Z,64.20
2023-02-12T21:34:18.273Z,64.30
2023-02-12T21:36:46.241Z,65.10
2023-02-12T21:39:15.287Z,64.80
2023-02-12T21:41:42.990Z,63.30
2023-02-12T21:44:14.706Z,62.90
2023-02-12T21:46:41.762Z,63.80
2023-02-12T21:49:08.813Z,63.30
2023-02-12T21:51:38.183Z,63.50
2023-02-12T21:54:07.808Z,63.60
2023-02-12T21:56:37.492Z,61.70
2023-02-12T21:59:04.722Z,62.20
2023-02-12T22:01:36.966Z,61.50
2023-02-12T22:04:05.455Z,61.30
2023-02-12T22:06:33.278Z,62.00
2023-02-12T22:09:06.860Z,60.80
2023-02-12T22:11:34.583Z,60.90
2023-02-12T22:14:01.463Z,61.10
2023-02-12T22:16:28.966Z,62.20
2023-02-12T22:18:59.129Z,61.90
2023-02-12T22:21:28.010Z,62.70
2023-02-12T22:23:54.915Z,60.80
2023-02-12T22:26:27.318Z,62.50
2023-02-12T22:29:00.324Z,60.70
2023-02-12T22:31:29.654Z,60.50
2023-02-12T22:34:01.813Z,62.00
2023-02-12T22:36:28.962Z,61.10
2023-02-12T22:38:58.408Z,61.00
2023-02-12T22:41:25.764Z,61.40
2023-02-12T22:43:52.839Z,60.70
2023-02-12T22:46:19.889Z,59.40
2023-02-12T22:48:46.824Z,61.00
2023-02-12T22:51:14.885Z,60.50
2023-02-12T22:53:41.540Z,62.60
2023-02-12T22:56:08.873Z,61.50
2023-02-12T22:58:37.096Z,61.00
2023-02-12T23:01:08.925Z,61.70
2023-02-12T23:03:37.622Z,62.00
2023-02-12T23:06:05.964Z,60.70
2023-02-12T23:08:32.963Z,61.90
2023-02-12T23:10:59.816Z,59.30
2023-02-12T23:13:29.982Z,59.70
2023-02-12T23:15:57.858Z,62.80
2023-02-12T23:18:25.068Z,61.40
2023-02-12T23:20:52.635Z,63.10
2023-02-12T23:23:20.844Z,64.10
2023-02-12T23:25:47.940Z,59.70
2023-02-12T23:28:14.684Z,61.40
2023-02-12T23:30:41.450Z,60.60
2023-02-12T23:33:08.237Z,61.50
2023-02-12T23:35:34.874Z,62.80
2023-02-12T23:38:01.712Z,64.60
2023-02-12T23:40:28.369Z,64.20
2023-02-12T23:42:55.043Z,66.10
2023-02-12T23:45:21.728Z,64.00
2023-02-12T23:47:48.352Z,65.70
2023-02-12T23:50:15.295Z,66.60
2023-02-12T23:52:41.924Z,64.90
2023-02-12T23:55:08.796Z,64.30
2023-02-12T23:57:35.520Z,64.00
